sensor_id;sensor_type;location;lat;lon;timestamp;pressure;altitude;pressure_sealevel;temperature;humidity
64200;BME280;50516;52.272;5.136;2022-12-18T00:01:34;102812.97;;;-0.76;79.13
64200;BME280;50516;52.272;5.136;2022-12-18T00:04:01;102815.97;;;-0.79;78.88
64200;BME280;50516;52.272;5.136;2022-12-18T00:06:28;102824.22;;;-0.81;79.00
64200;BME280;50516;52.272;5.136;2022-12-18T00:08:55;102825.09;;;-0.90;79.15
64200;BME280;50516;52.272;5.136;2022-12-18T00:11:23;102813.59;;;-0.82;79.27
64200;BME280;50516;52.272;5.136;2022-12-18T00:13:49;102802.38;;;-0.87;78.96
64200;BME280;50516;52.272;5.136;2022-12-18T00:16:17;102807.84;;;-0.79;79.07
64200;BME280;50516;52.272;5.136;2022-12-18T00:18:46;102798.09;;;-0.80;78.50
64200;BME280;50516;52.272;5.136;2022-12-18T00:21:12;102809.88;;;-0.81;78.90
64200;BME280;50516;52.272;5.136;2022-12-18T00:23:39;102801.78;;;-0.81;78.85
64200;BME280;50516;52.272;5.136;2022-12-18T00:26:07;102807.16;;;-0.81;78.56
64200;BME280;50516;52.272;5.136;2022-12-18T00:28:33;102812.16;;;-0.86;79.08
64200;BME280;50516;52.272;5.136;2022-12-18T00:31:09;102806.69;;;-1.04;78.93
64200;BME280;50516;52.272;5.136;2022-12-18T00:33:36;102800.16;;;-1.02;79.58
64200;BME280;50516;52.272;5.136;2022-12-18T00:38:37;102804.38;;;-0.89;78.90
64200;BME280;50516;52.272;5.136;2022-12-18T00:41:03;102807.59;;;-0.86;78.53
64200;BME280;50516;52.272;5.136;2022-12-18T00:43:29;102810.00;;;-0.83;78.86
64200;BME280;50516;52.272;5.136;2022-12-18T00:45:54;102805.50;;;-0.82;78.83
64200;BME280;50516;52.272;5.136;2022-12-18T00:48:20;102809.19;;;-0.83;78.87
64200;BME280;50516;52.272;5.136;2022-12-18T00:50:47;102816.81;;;-0.79;78.72
64200;BME280;50516;52.272;5.136;2022-12-18T00:53:13;102814.88;;;-0.86;78.79
64200;BME280;50516;52.272;5.136;2022-12-18T00:55:39;102807.47;;;-0.84;78.32
64200;BME280;50516;52.272;5.136;2022-12-18T00:58:05;102792.31;;;-0.85;78.28
64200;BME280;50516;52.272;5.136;2022-12-18T01:00:30;102795.44;;;-0.90;78.20
64200;BME280;50516;52.272;5.136;2022-12-18T01:02:56;102809.75;;;-0.89;78.39
64200;BME280;50516;52.272;5.136;2022-12-18T01:05:21;102801.56;;;-0.98;78.76
64200;BME280;50516;52.272;5.136;2022-12-18T01:07:47;102804.16;;;-1.06;78.74
64200;BME280;50516;52.272;5.136;2022-12-18T01:10:12;102810.09;;;-1.02;78.33
64200;BME280;50516;52.272;5.136;2022-12-18T01:12:38;102806.56;;;-1.03;78.51
64200;BME280;50516;52.272;5.136;2022-12-18T01:15:06;102799.75;;;-1.07;78.60
64200;BME280;50516;52.272;5.136;2022-12-18T01:17:32;102798.25;;;-1.19;78.69
64200;BME280;50516;52.272;5.136;2022-12-18T01:19:57;102801.63;;;-1.17;78.72
64200;BME280;50516;52.272;5.136;2022-12-18T01:22:23;102802.31;;;-1.15;78.40
64200;BME280;50516;52.272;5.136;2022-12-18T01:24:48;102800.06;;;-1.20;78.36
64200;BME280;50516;52.272;5.136;2022-12-18T01:27:14;102806.19;;;-1.18;78.15
64200;BME280;50516;52.272;5.136;2022-12-18T01:29:40;102802.75;;;-1.20;78.40
64200;BME280;50516;52.272;5.136;2022-12-18T01:32:05;102801.38;;;-1.24;78.14
64200;BME280;50516;52.272;5.136;2022-12-18T01:34:31;102807.03;;;-1.27;78.08
64200;BME280;50516;52.272;5.136;2022-12-18T01:36:57;102807.06;;;-1.37;78.61
64200;BME280;50516;52.272;5.136;2022-12-18T01:39:22;102813.84;;;-1.33;78.39
64200;BME280;50516;52.272;5.136;2022-12-18T01:41:48;102808.19;;;-1.30;78.05
64200;BME280;50516;52.272;5.136;2022-12-18T01:44:57;102807.63;;;-1.33;77.84
64200;BME280;50516;52.272;5.136;2022-12-18T01:47:43;102807.91;;;-1.36;77.55
64200;BME280;50516;52.272;5.136;2022-12-18T01:50:39;102814.16;;;-1.45;78.21
64200;BME280;50516;52.272;5.136;2022-12-18T01:53:13;102814.44;;;-1.49;78.09
64200;BME280;50516;52.272;5.136;2022-12-18T01:55:43;102835.44;;;-1.62;77.94
64200;BME280;50516;52.272;5.136;2022-12-18T01:58:10;102839.16;;;-1.53;77.52
64200;BME280;50516;52.272;5.136;2022-12-18T02:00:35;102845.66;;;-1.56;77.57
64200;BME280;50516;52.272;5.136;2022-12-18T02:03:01;102844.97;;;-1.58;77.23
64200;BME280;50516;52.272;5.136;2022-12-18T02:10:36;102859.81;;;-1.73;77.04
64200;BME280;50516;52.272;5.136;2022-12-18T02:15:54;102870.03;;;-1.77;77.04
64200;BME280;50516;52.272;5.136;2022-12-18T02:18:45;102871.75;;;-1.76;76.77
64200;BME280;50516;52.272;5.136;2022-12-18T02:21:26;102877.28;;;-1.68;77.14
64200;BME280;50516;52.272;5.136;2022-12-18T02:24:10;102884.34;;;-1.67;76.68
64200;BME280;50516;52.272;5.136;2022-12-18T02:26:49;102877.72;;;-1.62;76.21
64200;BME280;50516;52.272;5.136;2022-12-18T02:29:24;102863.69;;;-1.66;76.12
64200;BME280;50516;52.272;5.136;2022-12-18T02:31:55;102855.16;;;-1.61;76.25
64200;BME280;50516;52.272;5.136;2022-12-18T02:34:24;102844.53;;;-1.63;75.96
64200;BME280;50516;52.272;5.136;2022-12-18T02:36:53;102842.13;;;-1.66;76.22
64200;BME280;50516;52.272;5.136;2022-12-18T02:39:21;102838.13;;;-1.62;76.53
64200;BME280;50516;52.272;5.136;2022-12-18T02:41:48;102821.56;;;-1.57;76.64
64200;BME280;50516;52.272;5.136;2022-12-18T02:44:14;102815.31;;;-1.58;76.16
64200;BME280;50516;52.272;5.136;2022-12-18T02:46:53;102815.88;;;-1.64;76.81
64200;BME280;50516;52.272;5.136;2022-12-18T02:54:39;102813.75;;;-1.60;76.85
64200;BME280;50516;52.272;5.136;2022-12-18T03:00:33;102804.69;;;-1.69;76.43
64200;BME280;50516;52.272;5.136;2022-12-18T03:03:14;102803.13;;;-1.72;76.88
64200;BME280;50516;52.272;5.136;2022-12-18T03:05:46;102807.81;;;-1.74;76.73
64200;BME280;50516;52.272;5.136;2022-12-18T03:08:25;102803.41;;;-1.75;76.96
64200;BME280;50516;52.272;5.136;2022-12-18T03:11:11;102802.28;;;-1.82;76.65
64200;BME280;50516;52.272;5.136;2022-12-18T03:13:44;102795.47;;;-1.86;76.92
64200;BME280;50516;52.272;5.136;2022-12-18T03:16:31;102792.09;;;-1.88;76.66
64200;BME280;50516;52.272;5.136;2022-12-18T03:19:01;102790.09;;;-1.96;76.82
64200;BME280;50516;52.272;5.136;2022-12-18T03:21:37;102782.03;;;-1.96;76.71
64200;BME280;50516;52.272;5.136;2022-12-18T03:24:06;102789.69;;;-2.01;76.63
64200;BME280;50516;52.272;5.136;2022-12-18T03:26:34;102781.59;;;-2.01;76.26
64200;BME280;50516;52.272;5.136;2022-12-18T03:29:05;102786.00;;;-2.10;76.70
64200;BME280;50516;52.272;5.136;2022-12-18T03:31:32;102779.03;;;-2.12;76.42
64200;BME280;50516;52.272;5.136;2022-12-18T03:34:04;102768.97;;;-2.10;75.83
64200;BME280;50516;52.272;5.136;2022-12-18T03:36:30;102771.09;;;-2.14;75.74
64200;BME280;50516;52.272;5.136;2022-12-18T03:38:56;102765.72;;;-2.14;75.74
64200;BME280;50516;52.272;5.136;2022-12-18T03:41:31;102764.31;;;-2.18;75.67
64200;BME280;50516;52.272;5.136;2022-12-18T03:44:16;102770.25;;;-2.14;75.62
64200;BME280;50516;52.272;5.136;2022-12-18T03:49:23;102766.84;;;-2.26;75.46
64200;BME280;50516;52.272;5.136;2022-12-18T03:54:20;102757.09;;;-2.27;75.06
64200;BME280;50516;52.272;5.136;2022-12-18T03:56:48;102752.81;;;-2.30;74.99
64200;BME280;50516;52.272;5.136;2022-12-18T03:59:17;102752.69;;;-2.28;74.93
64200;BME280;50516;52.272;5.136;2022-12-18T04:01:49;102741.91;;;-2.28;75.34
64200;BME280;50516;52.272;5.136;2022-12-18T04:04:17;102750.25;;;-2.31;74.57
64200;BME280;50516;52.272;5.136;2022-12-18T04:06:45;102745.75;;;-2.31;74.85
64200;BME280;50516;52.272;5.136;2022-12-18T04:09:13;102741.06;;;-2.39;74.10
64200;BME280;50516;52.272;5.136;2022-12-18T04:11:40;102730.16;;;-2.47;74.53
64200;BME280;50516;52.272;5.136;2022-12-18T04:14:06;102723.63;;;-2.44;74.20
64200;BME280;50516;52.272;5.136;2022-12-18T04:16:31;102728.31;;;-2.46;74.18
64200;BME280;50516;52.272;5.136;2022-12-18T04:18:57;102724.38;;;-2.42;73.67
64200;BME280;50516;52.272;5.136;2022-12-18T04:21:22;102715.28;;;-2.51;73.75
64200;BME280;50516;52.272;5.136;2022-12-18T04:23:48;102724.03;;;-2.49;73.86
64200;BME280;50516;52.272;5.136;2022-12-18T04:26:13;102726.72;;;-2.49;73.23
64200;BME280;50516;52.272;5.136;2022-12-18T04:28:38;102735.13;;;-2.52;73.60
64200;BME280;50516;52.272;5.136;2022-12-18T04:31:04;102736.66;;;-2.49;73.52
64200;BME280;50516;52.272;5.136;2022-12-18T04:33:29;102731.41;;;-2.51;73.31
64200;BME280;50516;52.272;5.136;2022-12-18T04:35:55;102740.03;;;-2.57;73.34
64200;BME280;50516;52.272;5.136;2022-12-18T04:38:20;102752.91;;;-2.61;73.43
64200;BME280;50516;52.272;5.136;2022-12-18T04:40:45;102752.22;;;-2.63;73.87
64200;BME280;50516;52.272;5.136;2022-12-18T04:43:11;102757.84;;;-2.76;73.45
64200;BME280;50516;52.272;5.136;2022-12-18T04:45:36;102756.38;;;-2.80;73.75
64200;BME280;50516;52.272;5.136;2022-12-18T04:48:03;102763.34;;;-2.77;73.53
64200;BME280;50516;52.272;5.136;2022-12-18T04:50:29;102766.59;;;-2.73;73.54
64200;BME280;50516;52.272;5.136;2022-12-18T04:52:54;102771.56;;;-2.79;73.31
64200;BME280;50516;52.272;5.136;2022-12-18T04:55:20;102773.81;;;-2.84;73.09
64200;BME280;50516;52.272;5.136;2022-12-18T04:57:46;102779.19;;;-2.84;73.01
64200;BME280;50516;52.272;5.136;2022-12-18T05:00:11;102783.97;;;-2.87;72.55
64200;BME280;50516;52.272;5.136;2022-12-18T05:02:37;102790.34;;;-2.88;72.23
64200;BME280;50516;52.272;5.136;2022-12-18T05:05:03;102788.47;;;-2.88;72.50
64200;BME280;50516;52.272;5.136;2022-12-18T05:07:29;102784.53;;;-2.94;72.26
64200;BME280;50516;52.272;5.136;2022-12-18T05:09:55;102783.66;;;-2.94;72.45
64200;BME280;50516;52.272;5.136;2022-12-18T05:12:20;102795.13;;;-2.92;72.24
64200;BME280;50516;52.272;5.136;2022-12-18T05:14:45;102793.25;;;-3.01;72.06
64200;BME280;50516;52.272;5.136;2022-12-18T05:17:11;102795.75;;;-3.09;72.16
64200;BME280;50516;52.272;5.136;2022-12-18T05:19:36;102790.25;;;-3.08;72.31
64200;BME280;50516;52.272;5.136;2022-12-18T05:22:01;102804.25;;;-3.04;72.15
64200;BME280;50516;52.272;5.136;2022-12-18T05:24:27;102807.94;;;-3.05;71.96
64200;BME280;50516;52.272;5.136;2022-12-18T05:26:52;102808.84;;;-2.95;71.39
64200;BME280;50516;52.272;5.136;2022-12-18T05:29:17;102816.47;;;-3.00;71.10
64200;BME280;50516;52.272;5.136;2022-12-18T05:31:43;102821.22;;;-3.04;71.53
64200;BME280;50516;52.272;5.136;2022-12-18T05:34:08;102811.22;;;-3.02;71.75
64200;BME280;50516;52.272;5.136;2022-12-18T05:36:33;102805.38;;;-3.07;71.42
64200;BME280;50516;52.272;5.136;2022-12-18T05:38:59;102791.09;;;-3.07;71.63
64200;BME280;50516;52.272;5.136;2022-12-18T05:41:25;102778.50;;;-3.07;71.39
64200;BME280;50516;52.272;5.136;2022-12-18T05:43:50;102782.19;;;-3.08;71.26
64200;BME280;50516;52.272;5.136;2022-12-18T05:46:17;102795.50;;;-3.06;70.96
64200;BME280;50516;52.272;5.136;2022-12-18T05:48:44;102783.03;;;-3.07;71.26
64200;BME280;50516;52.272;5.136;2022-12-18T05:51:15;102781.63;;;-3.12;71.56
64200;BME280;50516;52.272;5.136;2022-12-18T05:53:42;102772.69;;;-3.12;72.07
64200;BME280;50516;52.272;5.136;2022-12-18T05:56:13;102769.56;;;-3.17;71.71
64200;BME280;50516;52.272;5.136;2022-12-18T05:58:40;102763.91;;;-3.14;71.93
64200;BME280;50516;52.272;5.136;2022-12-18T06:01:08;102759.91;;;-3.20;71.51
64200;BME280;50516;52.272;5.136;2022-12-18T06:03:34;102766.28;;;-3.21;71.89
64200;BME280;50516;52.272;5.136;2022-12-18T06:05:59;102764.84;;;-3.25;71.94
64200;BME280;50516;52.272;5.136;2022-12-18T06:08:25;102767.53;;;-3.25;71.58
64200;BME280;50516;52.272;5.136;2022-12-18T06:10:51;102759.88;;;-3.30;72.24
64200;BME280;50516;52.272;5.136;2022-12-18T06:13:18;102757.16;;;-3.30;71.94
64200;BME280;50516;52.272;5.136;2022-12-18T06:15:43;102756.59;;;-3.33;71.88
64200;BME280;50516;52.272;5.136;2022-12-18T06:18:09;102759.28;;;-3.33;71.96
64200;BME280;50516;52.272;5.136;2022-12-18T06:20:34;102763.50;;;-3.40;72.56
64200;BME280;50516;52.272;5.136;2022-12-18T06:23:01;102759.03;;;-3.30;72.20
64200;BME280;50516;52.272;5.136;2022-12-18T06:25:27;102757.31;;;-3.31;71.69
64200;BME280;50516;52.272;5.136;2022-12-18T06:27:52;102752.53;;;-3.27;71.73
64200;BME280;50516;52.272;5.136;2022-12-18T06:30:17;102742.47;;;-3.35;71.89
64200;BME280;50516;52.272;5.136;2022-12-18T06:32:43;102733.13;;;-3.31;71.76
64200;BME280;50516;52.272;5.136;2022-12-18T06:35:08;102742.91;;;-3.30;71.56
64200;BME280;50516;52.272;5.136;2022-12-18T06:37:34;102732.16;;;-3.30;71.33
64200;BME280;50516;52.272;5.136;2022-12-18T06:39:59;102723.78;;;-3.37;71.98
64200;BME280;50516;52.272;5.136;2022-12-18T06:42:26;102718.72;;;-3.30;71.90
64200;BME280;50516;52.272;5.136;2022-12-18T06:44:51;102712.13;;;-3.26;71.87
64200;BME280;50516;52.272;5.136;2022-12-18T06:47:17;102704.75;;;-3.24;72.01
64200;BME280;50516;52.272;5.136;2022-12-18T06:49:43;102700.34;;;-3.25;71.20
64200;BME280;50516;52.272;5.136;2022-12-18T06:52:08;102702.88;;;-3.33;71.56
64200;BME280;50516;52.272;5.136;2022-12-18T06:54:33;102708.25;;;-3.33;71.46
64200;BME280;50516;52.272;5.136;2022-12-18T06:56:59;102698.63;;;-3.36;71.51
64200;BME280;50516;52.272;5.136;2022-12-18T06:59:24;102700.91;;;-3.31;71.39
64200;BME280;50516;52.272;5.136;2022-12-18T07:01:50;102682.69;;;-3.27;71.88
64200;BME280;50516;52.272;5.136;2022-12-18T07:04:15;102685.78;;;-3.32;72.01
64200;BME280;50516;52.272;5.136;2022-12-18T07:06:40;102686.75;;;-3.33;72.10
64200;BME280;50516;52.272;5.136;2022-12-18T07:09:05;102680.97;;;-3.28;72.02
64200;BME280;50516;52.272;5.136;2022-12-18T07:11:32;102686.75;;;-3.33;71.86
64200;BME280;50516;52.272;5.136;2022-12-18T07:13:58;102692.13;;;-3.33;72.16
64200;BME280;50516;52.272;5.136;2022-12-18T07:16:23;102689.44;;;-3.33;72.53
64200;BME280;50516;52.272;5.136;2022-12-18T07:18:48;102686.78;;;-3.23;71.94
64200;BME280;50516;52.272;5.136;2022-12-18T07:21:16;102684.78;;;-3.31;71.74
64200;BME280;50516;52.272;5.136;2022-12-18T07:23:42;102674.34;;;-3.34;71.91
64200;BME280;50516;52.272;5.136;2022-12-18T07:26:11;102677.72;;;-3.32;72.07
64200;BME280;50516;52.272;5.136;2022-12-18T07:28:38;102676.91;;;-3.23;71.99
64200;BME280;50516;52.272;5.136;2022-12-18T07:31:11;102678.88;;;-3.25;72.38
64200;BME280;50516;52.272;5.136;2022-12-18T07:33:37;102674.81;;;-3.19;71.98
64200;BME280;50516;52.272;5.136;2022-12-18T07:36:03;102667.59;;;-3.19;72.06
64200;BME280;50516;52.272;5.136;2022-12-18T07:38:30;102669.00;;;-3.24;72.13
64200;BME280;50516;52.272;5.136;2022-12-18T07:41:00;102649.44;;;-3.26;72.16
64200;BME280;50516;52.272;5.136;2022-12-18T07:43:26;102648.91;;;-3.20;71.94
64200;BME280;50516;52.272;5.136;2022-12-18T07:45:51;102638.03;;;-3.19;71.52
64200;BME280;50516;52.272;5.136;2022-12-18T07:48:17;102637.19;;;-3.19;71.72
64200;BME280;50516;52.272;5.136;2022-12-18T07:50:42;102629.94;;;-3.28;72.15
64200;BME280;50516;52.272;5.136;2022-12-18T07:53:07;102623.88;;;-3.21;72.13
64200;BME280;50516;52.272;5.136;2022-12-18T07:55:33;102629.69;;;-3.16;71.89
64200;BME280;50516;52.272;5.136;2022-12-18T07:58:01;102629.56;;;-3.14;72.00
64200;BME280;50516;52.272;5.136;2022-12-18T08:00:27;102618.69;;;-3.13;71.76
64200;BME280;50516;52.272;5.136;2022-12-18T08:02:52;102612.31;;;-3.12;72.23
64200;BME280;50516;52.272;5.136;2022-12-18T08:05:18;102618.69;;;-3.13;72.11
64200;BME280;50516;52.272;5.136;2022-12-18T08:07:43;102620.81;;;-3.06;72.05
64200;BME280;50516;52.272;5.136;2022-12-18T08:10:09;102623.22;;;-3.03;72.23
64200;BME280;50516;52.272;5.136;2022-12-18T08:12:34;102628.47;;;-3.02;72.44
64200;BME280;50516;52.272;5.136;2022-12-18T08:15:00;102622.34;;;-3.04;72.75
64200;BME280;50516;52.272;5.136;2022-12-18T08:17:25;102635.94;;;-2.96;72.53
64200;BME280;50516;52.272;5.136;2022-12-18T08:19:50;102641.78;;;-2.90;72.56
64200;BME280;50516;52.272;5.136;2022-12-18T08:22:16;102649.84;;;-2.90;72.96
64200;BME280;50516;52.272;5.136;2022-12-18T08:24:41;102657.19;;;-2.83;72.89
64200;BME280;50516;52.272;5.136;2022-12-18T08:27:06;102659.75;;;-2.71;72.42
64200;BME280;50516;52.272;5.136;2022-12-18T08:29:32;102659.06;;;-2.73;72.02
64200;BME280;50516;52.272;5.136;2022-12-18T08:31:57;102663.31;;;-2.71;71.98
64200;BME280;50516;52.272;5.136;2022-12-18T08:34:23;102658.78;;;-2.70;72.42
64200;BME280;50516;52.272;5.136;2022-12-18T08:36:48;102658.78;;;-2.70;72.28
64200;BME280;50516;52.272;5.136;2022-12-18T08:39:13;102652.84;;;-2.64;72.14
64200;BME280;50516;52.272;5.136;2022-12-18T08:41:39;102660.63;;;-2.61;72.07
64200;BME280;50516;52.272;5.136;2022-12-18T08:44:04;102651.00;;;-2.54;71.78
64200;BME280;50516;52.272;5.136;2022-12-18T08:46:48;102645.75;;;-2.55;71.74
64200;BME280;50516;52.272;5.136;2022-12-18T08:49:13;102641.53;;;-2.48;71.82
64200;BME280;50516;52.272;5.136;2022-12-18T08:51:39;102639.13;;;-2.42;71.46
64200;BME280;50516;52.272;5.136;2022-12-18T08:54:06;102648.75;;;-2.29;71.42
64200;BME280;50516;52.272;5.136;2022-12-18T08:56:31;102654.53;;;-2.24;71.49
64200;BME280;50516;52.272;5.136;2022-12-18T08:58:57;102656.06;;;-2.12;71.24
64200;BME280;50516;52.272;5.136;2022-12-18T09:01:23;102640.66;;;-2.19;71.32
64200;BME280;50516;52.272;5.136;2022-12-18T09:03:49;102628.88;;;-2.09;71.70
64200;BME280;50516;52.272;5.136;2022-12-18T09:06:17;102623.34;;;-2.07;71.86
64200;BME280;50516;52.272;5.136;2022-12-18T09:08:44;102619.94;;;-1.99;71.50
64200;BME280;50516;52.272;5.136;2022-12-18T09:11:30;102623.72;;;-1.92;71.37
64200;BME280;50516;52.272;5.136;2022-12-18T09:13:55;102641.03;;;-1.85;71.81
64200;BME280;50516;52.272;5.136;2022-12-18T09:16:22;102636.03;;;-1.80;71.83
64200;BME280;50516;52.272;5.136;2022-12-18T09:18:48;102637.91;;;-1.90;71.78
64200;BME280;50516;52.272;5.136;2022-12-18T09:21:19;102629.94;;;-1.72;72.17
64200;BME280;50516;52.272;5.136;2022-12-18T09:23:49;102633.84;;;-1.67;71.83
64200;BME280;50516;52.272;5.136;2022-12-18T09:26:15;102619.56;;;-1.67;71.93
64200;BME280;50516;52.272;5.136;2022-12-18T09:28:40;102619.38;;;-1.56;72.24
64200;BME280;50516;52.272;5.136;2022-12-18T09:31:08;102612.16;;;-1.65;72.57
64200;BME280;50516;52.272;5.136;2022-12-18T09:33:37;102612.13;;;-1.55;72.30
64200;BME280;50516;52.272;5.136;2022-12-18T09:36:04;102617.06;;;-1.51;72.46
64200;BME280;50516;52.272;5.136;2022-12-18T09:38:30;102614.88;;;-1.37;72.08
64200;BME280;50516;52.272;5.136;2022-12-18T09:44:18;102609.13;;;-1.24;71.58
64200;BME280;50516;52.272;5.136;2022-12-18T09:46:48;102611.72;;;-1.33;72.18
64200;BME280;50516;52.272;5.136;2022-12-18T09:49:18;102613.16;;;-1.29;72.34
64200;BME280;50516;52.272;5.136;2022-12-18T09:51:50;102605.44;;;-1.23;72.37
64200;BME280;50516;52.272;5.136;2022-12-18T09:54:39;102601.56;;;-1.11;72.38
64200;BME280;50516;52.272;5.136;2022-12-18T09:57:05;102594.06;;;-1.17;72.28
64200;BME280;50516;52.272;5.136;2022-12-18T09:59:40;102583.59;;;-1.02;72.89
64200;BME280;50516;52.272;5.136;2022-12-18T10:02:19;102574.22;;;-0.98;72.75
64200;BME280;50516;52.272;5.136;2022-12-18T10:05:09;102581.00;;;-0.94;72.41
64200;BME280;50516;52.272;5.136;2022-12-18T10:07:49;102575.59;;;-0.94;72.42
64200;BME280;50516;52.272;5.136;2022-12-18T10:10:24;102593.09;;;-0.80;71.96
64200;BME280;50516;52.272;5.136;2022-12-18T10:13:30;102593.25;;;-0.82;72.13
64200;BME280;50516;52.272;5.136;2022-12-18T10:26:41;102564.81;;;-0.76;73.07
64200;BME280;50516;52.272;5.136;2022-12-18T10:29:14;102570.47;;;-0.69;72.88
64200;BME280;50516;52.272;5.136;2022-12-18T10:31:40;102570.91;;;-0.56;72.89
64200;BME280;50516;52.272;5.136;2022-12-18T10:34:12;102587.91;;;-0.56;72.90
64200;BME280;50516;52.272;5.136;2022-12-18T10:36:38;102578.53;;;-0.51;72.76
64200;BME280;50516;52.272;5.136;2022-12-18T10:39:24;102568.94;;;-0.46;72.72
64200;BME280;50516;52.272;5.136;2022-12-18T10:41:51;102558.84;;;-0.44;73.27
64200;BME280;50516;52.272;5.136;2022-12-18T10:44:21;102564.06;;;-0.42;72.82
64200;BME280;50516;52.272;5.136;2022-12-18T10:46:50;102571.81;;;-0.21;72.87
64200;BME280;50516;52.272;5.136;2022-12-18T10:49:28;102549.06;;;-0.19;71.91
64200;BME280;50516;52.272;5.136;2022-12-18T10:52:23;102555.00;;;-0.15;72.66
64200;BME280;50516;52.272;5.136;2022-12-18T10:54:58;102559.75;;;-0.09;72.17
64200;BME280;50516;52.272;5.136;2022-12-18T10:57:35;102543.72;;;-0.10;72.22
64200;BME280;50516;52.272;5.136;2022-12-18T11:02:46;102528.00;;;-0.15;71.87
64200;BME280;50516;52.272;5.136;2022-12-18T11:05:34;102517.41;;;-0.08;72.55
64200;BME280;50516;52.272;5.136;2022-12-18T11:08:02;102517.28;;;0.02;72.27
64200;BME280;50516;52.272;5.136;2022-12-18T11:10:36;102525.75;;;0.07;71.92
64200;BME280;50516;52.272;5.136;2022-12-18T11:13:17;102531.13;;;-0.02;72.31
64200;BME280;50516;52.272;5.136;2022-12-18T11:15:44;102526.28;;;0.10;72.12
64200;BME280;50516;52.272;5.136;2022-12-18T11:18:19;102508.25;;;0.19;72.28
64200;BME280;50516;52.272;5.136;2022-12-18T11:20:52;102517.25;;;0.28;72.28
64200;BME280;50516;52.272;5.136;2022-12-18T11:23:19;102507.63;;;0.33;71.80
64200;BME280;50516;52.272;5.136;2022-12-18T11:26:06;102496.34;;;0.38;71.63
64200;BME280;50516;52.272;5.136;2022-12-18T11:31:18;102508.53;;;0.42;71.94
64200;BME280;50516;52.272;5.136;2022-12-18T11:33:59;102503.97;;;0.51;71.24
64200;BME280;50516;52.272;5.136;2022-12-18T11:36:29;102503.13;;;0.50;71.22
64200;BME280;50516;52.272;5.136;2022-12-18T11:38:59;102506.03;;;0.57;71.28
64200;BME280;50516;52.272;5.136;2022-12-18T11:41:34;102507.06;;;0.72;70.90
64200;BME280;50516;52.272;5.136;2022-12-18T11:44:26;102511.97;;;0.77;71.34
64200;BME280;50516;52.272;5.136;2022-12-18T11:47:00;102499.47;;;0.76;70.59
64200;BME280;50516;52.272;5.136;2022-12-18T11:49:29;102490.00;;;0.80;70.73
64200;BME280;50516;52.272;5.136;2022-12-18T11:52:03;102484.41;;;0.73;71.27
64200;BME280;50516;52.272;5.136;2022-12-18T11:54:30;102468.19;;;0.73;71.33
64200;BME280;50516;52.272;5.136;2022-12-18T11:57:00;102463.13;;;0.70;71.46
64200;BME280;50516;52.272;5.136;2022-12-18T11:59:37;102452.81;;;0.66;72.41
64200;BME280;50516;52.272;5.136;2022-12-18T12:02:41;102444.69;;;0.66;72.43
64200;BME280;50516;52.272;5.136;2022-12-18T12:05:12;102445.91;;;0.63;71.61
64200;BME280;50516;52.272;5.136;2022-12-18T12:10:25;102436.09;;;0.62;71.46
64200;BME280;50516;52.272;5.136;2022-12-18T12:21:41;102412.97;;;0.84;70.98
64200;BME280;50516;52.272;5.136;2022-12-18T12:26:59;102417.00;;;0.88;70.83
64200;BME280;50516;52.272;5.136;2022-12-18T12:29:43;102402.13;;;1.01;71.14
64200;BME280;50516;52.272;5.136;2022-12-18T12:32:22;102407.53;;;1.09;70.92
64200;BME280;50516;52.272;5.136;2022-12-18T12:34:55;102408.19;;;1.11;70.43
64200;BME280;50516;52.272;5.136;2022-12-18T12:40:13;102398.41;;;1.10;70.44
64200;BME280;50516;52.272;5.136;2022-12-18T12:42:44;102386.53;;;1.19;69.88
64200;BME280;50516;52.272;5.136;2022-12-18T12:45:38;102395.69;;;1.10;70.08
64200;BME280;50516;52.272;5.136;2022-12-18T12:48:13;102386.53;;;1.19;70.56
64200;BME280;50516;52.272;5.136;2022-12-18T12:50:41;102374.88;;;1.19;70.04
64200;BME280;50516;52.272;5.136;2022-12-18T12:53:09;102386.56;;;1.03;70.08
64200;BME280;50516;52.272;5.136;2022-12-18T12:55:41;102380.69;;;0.83;71.37
64200;BME280;50516;52.272;5.136;2022-12-18T13:01:01;102363.25;;;1.02;70.07
64200;BME280;50516;52.272;5.136;2022-12-18T13:06:07;102373.72;;;0.97;71.36
64200;BME280;50516;52.272;5.136;2022-12-18T13:08:58;102373.69;;;1.05;71.33
64200;BME280;50516;52.272;5.136;2022-12-18T13:14:29;102369.66;;;1.01;71.10
64200;BME280;50516;52.272;5.136;2022-12-18T13:17:33;102376.41;;;0.97;71.01
64200;BME280;50516;52.272;5.136;2022-12-18T13:20:10;102373.72;;;0.88;70.62
64200;BME280;50516;52.272;5.136;2022-12-18T13:22:42;102367.13;;;0.99;71.43
64200;BME280;50516;52.272;5.136;2022-12-18T13:25:28;102358.34;;;1.05;70.52
64200;BME280;50516;52.272;5.136;2022-12-18T13:28:01;102353.28;;;1.02;71.24
64200;BME280;50516;52.272;5.136;2022-12-18T13:38:34;102331.59;;;1.11;70.99
64200;BME280;50516;52.272;5.136;2022-12-18T13:43:53;102301.72;;;0.96;70.67
64200;BME280;50516;52.272;5.136;2022-12-18T13:51:39;102293.81;;;0.86;70.48
64200;BME280;50516;52.272;5.136;2022-12-18T13:54:36;102294.47;;;0.88;70.02
64200;BME280;50516;52.272;5.136;2022-12-18T13:57:04;102285.31;;;0.97;69.69
64200;BME280;50516;52.272;5.136;2022-12-18T13:59:36;102288.19;;;0.96;70.54
64200;BME280;50516;52.272;5.136;2022-12-18T14:02:21;102286.31;;;1.04;70.54
64200;BME280;50516;52.272;5.136;2022-12-18T14:04:48;102292.56;;;1.05;70.08
64200;BME280;50516;52.272;5.136;2022-12-18T14:07:25;102282.94;;;1.02;69.97
64200;BME280;50516;52.272;5.136;2022-12-18T14:09:59;102286.00;;;0.99;70.39
64200;BME280;50516;52.272;5.136;2022-12-18T14:12:32;102292.41;;;0.98;70.18
64200;BME280;50516;52.272;5.136;2022-12-18T14:15:42;102285.31;;;0.97;70.79
64200;BME280;50516;52.272;5.136;2022-12-18T14:18:31;102282.78;;;0.96;70.11
64200;BME280;50516;52.272;5.136;2022-12-18T14:21:01;102252.53;;;1.00;70.60
64200;BME280;50516;52.272;5.136;2022-12-18T14:23:48;102261.69;;;0.91;69.59
64200;BME280;50516;52.272;5.136;2022-12-18T14:28:50;102265.19;;;1.00;69.83
64200;BME280;50516;52.272;5.136;2022-12-18T14:31:21;102264.38;;;0.91;70.21
64200;BME280;50516;52.272;5.136;2022-12-18T14:33:47;102253.09;;;0.79;69.60
64200;BME280;50516;52.272;5.136;2022-12-18T14:36:16;102248.97;;;0.91;70.14